.
WxDataArchive / Data Records for 2006-04-15
2006-04-14 April 2006 2006-04-16

Data Records for Saturday, 15 April 2006

Time	Temp	Chill	HIndex	Humid	Dewpt	 Wind 	HiWind	WindDir	Rain 	Barom 
-----	----	-----	------	-----	-----	------	------	-------	-----	----- 
00:00	65.3	65.3	65.3	73	56.4	3	7	248	0.00	29.549 
00:05	65.0	65.0	65.0	76	57.2	3	9	248	0.00	29.549 
00:10	64.7	64.7	64.7	80	58.4	4	8	248	0.00	29.549 
00:15	64.3	64.3	64.3	82	58.7	4	7	248	0.00	29.552 
00:20	64.2	64.2	64.2	84	59.3	3	7	248	0.00	29.552 
00:25	63.9	63.9	63.9	85	59.3	3	7	248	0.00	29.552 
00:30	63.5	63.5	63.5	86	59.2	2	6	248	0.00	29.552 
00:35	63.4	63.4	63.4	86	59.1	2	5	248	0.00	29.552 
00:40	63.2	63.2	63.2	87	59.3	1	3	248	0.00	29.552 
00:45	63.1	63.1	63.1	87	59.2	0	3	248	0.00	29.549 
00:50	62.9	62.9	62.9	87	59.0	1	3	248	0.00	29.549 
00:55	62.7	62.7	62.7	87	58.8	1	5	248	0.00	29.549 
01:00	62.6	62.6	62.6	88	59.0	1	3	248	0.00	29.550 
01:05	62.4	62.4	62.4	88	58.8	1	4	248	0.00	29.550 
01:10	62.4	62.4	62.4	88	58.8	1	3	248	0.00	29.550 
01:15	62.4	62.4	62.4	88	58.8	1	2	248	0.00	29.554 
01:20	62.3	62.3	62.3	88	58.7	0	2	248	0.00	29.554 
01:25	62.1	62.1	62.1	88	58.5	0	1	248	0.00	29.554 
01:30	62.1	62.1	62.1	88	58.5	0	2	248	0.00	29.553 
01:35	62.0	62.0	62.0	88	58.4	0	2	248	0.00	29.553 
01:40	62.0	62.0	62.0	88	58.4	1	3	248	0.00	29.553 
01:45	62.0	62.0	62.0	88	58.4	0	1	248	0.00	29.553 
01:50	62.0	62.0	62.0	88	58.4	1	3	248	0.00	29.553 
01:55	62.1	62.1	62.1	88	58.5	1	3	248	0.00	29.553 
02:00	62.1	62.1	62.1	88	58.5	1	3	248	0.00	29.556 
02:05	62.3	62.3	62.3	88	58.7	2	5	248	0.00	29.556 
02:10	62.3	62.3	62.3	88	58.7	1	4	248	0.00	29.556 
02:15	62.1	62.1	62.1	88	58.5	1	3	248	0.00	29.553 
02:20	62.1	62.1	62.1	88	58.5	1	5	248	0.00	29.553 
02:25	62.0	62.0	62.0	88	58.4	1	3	225	0.00	29.553 
02:30	62.0	62.0	62.0	88	58.4	1	5	248	0.00	29.554 
02:35	62.0	62.0	62.0	88	58.4	2	4	248	0.00	29.554 
02:40	62.0	62.0	62.0	89	58.7	2	5	248	0.00	29.554 
02:45	61.8	61.8	61.8	89	58.5	1	3	248	0.00	29.555 
02:50	61.8	61.8	61.8	89	58.5	2	4	248	0.00	29.555 
02:55	61.8	61.8	61.8	89	58.5	1	3	248	0.00	29.555 
03:00	61.8	61.8	61.8	89	58.5	1	3	248	0.00	29.554 
03:05	61.8	61.8	61.8	89	58.5	1	2	248	0.00	29.554 
03:10	61.6	61.6	61.6	89	58.3	0	1	248	0.00	29.554 
03:15	61.5	61.5	61.5	89	58.2	1	3	248	0.00	29.553 
03:20	61.5	61.5	61.5	90	58.5	1	3	248	0.00	29.553 
03:25	61.5	61.5	61.5	90	58.5	1	3	248	0.00	29.553 
03:30	61.3	61.3	61.3	90	58.3	0	2	248	0.00	29.555 
03:35	61.2	61.2	61.2	90	58.2	0	2	248	0.00	29.555 
03:40	61.0	61.0	61.0	90	58.0	0	2	248	0.00	29.555 
03:45	61.0	61.0	61.0	90	58.0	0	2	248	0.00	29.556 
03:50	60.9	60.9	60.9	90	57.9	0	2	248	0.00	29.556 
03:55	60.9	60.9	60.9	91	58.3	0	2	248	0.00	29.556 
04:00	60.7	60.7	60.7	91	58.1	0	1	248	0.00	29.554 
04:05	60.5	60.5	60.5	91	57.9	0	0	---	0.00	29.554 
04:10	60.4	60.4	60.4	91	57.8	0	0	---	0.00	29.554 
04:15	60.1	60.1	60.1	91	57.5	0	1	248	0.00	29.551 
04:20	60.1	60.1	60.1	92	57.8	0	1	248	0.00	29.551 
04:25	59.8	59.8	59.8	92	57.5	0	1	248	0.00	29.551 
04:30	59.6	59.6	59.6	92	57.3	0	0	---	0.00	29.549 
04:35	59.5	59.5	59.5	92	57.2	0	0	---	0.00	29.549 
04:40	59.2	59.2	59.2	92	56.9	0	0	---	0.00	29.549 
04:45	58.9	58.9	58.9	92	56.6	0	0	---	0.00	29.554 
04:50	58.6	58.6	58.6	92	56.3	0	0	---	0.00	29.554 
04:55	58.3	58.3	58.3	92	56.0	0	1	248	0.00	29.554 
05:00	58.3	58.3	58.3	93	56.3	0	0	---	0.00	29.559 
05:05	58.1	58.1	58.1	93	56.1	0	0	---	0.00	29.559 
05:10	58.0	58.0	58.0	93	56.0	0	0	---	0.00	29.559 
05:15	57.8	57.8	57.8	93	55.8	0	0	---	0.00	29.568 
05:20	57.6	57.6	57.6	93	55.6	0	0	---	0.00	29.568 
05:25	57.5	57.5	57.5	93	55.5	0	0	---	0.00	29.568 
05:30	57.5	57.5	57.5	93	55.5	0	0	---	0.00	29.572 
05:35	57.8	57.8	57.8	94	56.1	0	0	---	0.00	29.572 
05:40	58.3	58.3	58.3	94	56.6	0	0	---	0.00	29.572 
05:45	58.4	58.4	58.4	94	56.7	0	0	---	0.00	29.578 
05:50	58.9	58.9	58.9	95	57.5	0	1	248	0.00	29.578 
05:55	59.0	59.0	59.0	95	57.6	0	0	---	0.00	29.578 
06:00	59.0	59.0	59.0	95	57.6	0	0	---	0.00	29.583 
06:05	59.2	59.2	59.2	95	57.8	0	1	248	0.00	29.583 
06:10	59.3	59.3	59.3	95	57.9	0	1	248	0.00	29.583 
06:15	59.3	59.3	59.3	95	57.9	0	1	248	0.00	29.593 
06:20	59.3	59.3	59.3	95	57.9	0	1	248	0.00	29.593 
06:25	59.3	59.3	59.3	95	57.9	0	1	248	0.00	29.593 
06:30	59.5	59.5	59.5	95	58.1	0	1	248	0.00	29.597 
06:35	59.5	59.5	59.5	95	58.1	0	0	---	0.00	29.597 
06:40	59.5	59.5	59.5	95	58.1	0	0	---	0.00	29.597 
06:45	59.5	59.5	59.5	95	58.1	0	1	248	0.00	29.605 
06:50	59.5	59.5	59.5	95	58.1	0	1	248	0.00	29.605 
06:55	59.5	59.5	59.5	95	58.1	0	1	248	0.00	29.605 
07:00	59.6	59.6	59.6	95	58.2	0	1	248	0.00	29.614 
07:05	59.6	59.6	59.6	95	58.2	0	2	248	0.00	29.614 
07:10	59.8	59.8	59.8	95	58.4	0	2	0	0.00	29.614 
07:15	59.8	59.8	59.8	94	58.1	1	3	0	0.00	29.624 
07:20	59.6	59.6	59.6	94	57.9	1	4	0	0.00	29.624 
07:25	59.6	59.6	59.6	93	57.6	1	6	45	0.00	29.624 
07:30	59.3	59.3	59.3	90	56.4	2	5	45	0.00	29.635 
07:35	59.2	59.2	59.2	86	55.0	1	4	112	0.00	29.635 
07:40	58.9	58.9	58.9	83	53.7	1	5	0	0.00	29.635 
07:45	58.7	58.7	58.7	81	52.9	1	3	68	0.00	29.640 
07:50	58.6	58.6	58.6	78	51.8	1	5	22	0.00	29.640 
07:55	58.3	58.3	58.3	77	51.1	1	5	45	0.00	29.640 
08:00	58.3	58.3	58.3	77	51.1	1	4	68	0.00	29.656 
08:05	58.3	58.3	58.3	76	50.8	1	4	68	0.00	29.656 
08:10	58.4	58.4	58.4	74	50.1	2	5	112	0.00	29.656 
08:15	58.7	58.7	58.7	73	50.1	2	4	112	0.00	29.665 
08:20	58.9	58.9	58.9	72	49.9	2	5	45	0.00	29.665 
08:25	59.2	59.2	59.2	72	50.2	2	6	90	0.00	29.665 
08:30	59.5	59.5	59.5	70	49.7	2	4	45	0.00	29.671 
08:35	59.6	59.6	59.6	70	49.8	2	6	68	0.00	29.671 
08:40	59.8	59.8	59.8	69	49.6	3	7	90	0.00	29.671 
08:45	59.9	59.9	59.9	69	49.7	3	6	22	0.00	29.674 
08:50	60.1	60.1	60.1	69	49.9	2	6	45	0.00	29.674 
08:55	60.1	60.1	60.1	68	49.5	2	5	90	0.00	29.674 
09:00	60.2	60.2	60.2	69	50.0	2	5	0	0.00	29.680 
09:05	60.2	60.2	60.2	69	50.0	3	11	90	0.00	29.680 
09:10	60.4	60.4	60.4	70	50.6	2	6	112	0.00	29.680 
09:15	60.9	60.9	60.9	68	50.3	2	5	68	0.00	29.690 
09:20	60.9	60.9	60.9	69	50.7	3	7	45	0.00	29.690 
09:25	61.0	61.0	61.0	68	50.4	2	5	45	0.00	29.690 
09:30	61.2	61.2	61.2	68	50.5	2	5	0	0.00	29.691 
09:35	61.6	61.6	61.6	67	50.5	2	6	90	0.00	29.691 
09:40	62.1	62.1	62.1	64	49.8	3	10	90	0.00	29.691 
09:45	62.1	62.1	62.1	64	49.8	3	7	68	0.00	29.692 
09:50	62.1	62.1	62.1	65	50.2	3	10	45	0.00	29.692 
09:55	62.6	62.6	62.6	62	49.4	3	5	90	0.00	29.692 
10:00	62.7	62.7	62.7	62	49.5	3	7	90	0.00	29.697 
10:05	62.9	62.9	62.9	59	48.3	3	9	90	0.00	29.697 
10:10	63.1	63.1	63.1	60	49.0	3	11	45	0.00	29.697 
10:15	63.2	63.2	63.2	60	49.1	2	8	45	0.00	29.696 
10:20	63.7	63.7	63.7	60	49.5	3	7	112	0.00	29.696 
10:25	63.9	63.9	63.9	58	48.8	4	11	90	0.00	29.696 
10:30	64.2	64.2	64.2	56	48.2	3	6	112	0.00	29.693 
10:35	64.8	64.8	64.8	57	49.2	2	5	112	0.00	29.693 
10:40	65.2	65.2	65.2	57	49.6	3	6	112	0.00	29.693 
10:45	65.2	65.2	65.2	55	48.6	3	8	90	0.00	29.697 
10:50	65.3	65.3	65.3	58	50.1	2	4	112	0.00	29.697 
10:55	66.0	66.0	66.0	58	50.8	2	5	90	0.00	29.697 
11:00	66.3	66.3	66.3	55	49.6	3	10	112	0.00	29.701 
11:05	66.1	66.1	66.1	55	49.5	1	5	45	0.00	29.701 
11:10	66.6	66.6	66.6	53	48.9	2	4	90	0.00	29.701 
11:15	67.1	67.1	67.1	58	51.8	1	4	68	0.00	29.702 
11:20	67.4	67.4	67.4	53	49.7	1	4	68	0.00	29.702 
11:25	67.6	67.6	67.6	48	47.2	2	4	90	0.00	29.702 
11:30	67.3	67.3	67.3	50	48.0	3	10	112	0.00	29.710 
11:35	67.6	67.6	67.6	54	50.4	2	9	45	0.00	29.710 
11:40	68.4	68.4	68.4	49	48.5	1	3	45	0.00	29.710 
11:45	68.6	68.6	68.6	46	47.0	1	3	68	0.00	29.714 
11:50	68.8	68.8	68.8	46	47.2	1	4	90	0.00	29.714 
11:55	69.1	69.1	69.1	46	47.4	1	3	22	0.00	29.714 
12:00	68.9	68.9	68.9	45	46.7	1	2	22	0.00	29.715 
12:05	69.3	69.3	69.3	42	45.2	1	3	112	0.00	29.715 
12:10	69.6	69.6	69.6	43	46.1	1	3	90	0.00	29.715 
12:15	70.1	70.1	70.1	42	45.9	1	3	68	0.00	29.717 
12:20	70.1	70.1	70.1	36	41.9	2	5	112	0.00	29.717 
12:25	70.3	70.3	70.3	39	44.2	2	6	112	0.00	29.717 
12:30	70.4	70.4	70.4	40	44.9	3	5	90	0.00	29.719 
12:35	70.3	70.3	70.3	38	43.5	2	5	68	0.00	29.719 
12:40	69.9	69.9	69.9	38	43.1	2	7	90	0.00	29.719 
12:45	70.3	70.3	70.3	38	43.5	1	3	45	0.00	29.718 
12:50	71.1	71.1	71.1	40	45.5	1	4	45	0.00	29.718 
12:55	71.8	71.8	71.8	36	43.4	1	5	90	0.00	29.718 
13:00	71.8	71.8	71.8	30	38.7	2	4	45	0.00	29.714 
13:05	71.8	71.8	71.8	34	41.9	1	4	45	0.00	29.714 
13:10	72.0	72.0	72.0	34	42.1	2	6	112	0.00	29.714 
13:15	72.1	72.1	72.1	31	39.8	1	5	68	0.00	29.708 
13:20	72.3	72.3	72.3	33	41.6	1	5	45	0.00	29.708 
13:25	72.5	72.5	72.5	30	39.3	1	4	68	0.00	29.708 
13:30	72.5	72.5	72.5	25	34.7	1	2	0	0.00	29.701 
13:35	73.2	73.2	73.2	28	38.1	1	2	0	0.00	29.701 
13:40	73.2	73.2	73.2	25	35.3	2	5	315	0.00	29.701 
13:45	72.7	72.7	72.7	24	33.8	2	4	0	0.00	29.701 
13:50	72.8	72.8	72.8	27	36.9	2	5	248	0.00	29.701 
13:55	73.2	73.2	73.2	28	38.1	2	5	248	0.00	29.701 
14:00	73.5	73.5	73.5	27	37.5	1	2	248	0.00	29.698 
14:05	73.7	73.7	73.7	26	36.7	1	4	22	0.00	29.698 
14:10	73.9	73.9	73.9	24	34.8	1	3	90	0.00	29.698 
14:15	74.0	74.0	74.0	25	35.9	1	2	45	0.00	29.697 
14:20	73.9	73.9	73.9	25	35.9	1	2	315	0.00	29.697 
14:25	74.4	74.4	74.4	25	36.3	1	3	315	0.00	29.697 
14:30	74.6	74.6	74.6	26	37.4	1	3	68	0.00	29.699 
14:35	74.2	74.2	74.2	24	35.1	1	2	68	0.00	29.699 
14:40	74.2	74.2	74.2	28	39.0	1	3	292	0.00	29.699 
14:45	74.9	74.9	74.9	27	38.7	0	2	292	0.00	29.700 
14:50	74.7	74.7	74.7	19	29.7	1	4	0	0.00	29.700 
14:55	74.9	74.9	74.9	24	35.7	1	4	292	0.00	29.700 
15:00	75.1	75.1	76.6	26	37.9	1	3	338	0.00	29.700 
15:05	75.3	75.3	76.4	23	34.9	2	3	315	0.00	29.700 
15:10	75.3	75.3	76.6	25	37.0	1	3	270	0.00	29.700 
15:15	75.1	75.1	76.1	21	32.5	1	3	0	0.00	29.698 
15:20	75.4	75.4	76.4	22	33.9	1	5	0	0.00	29.698 
15:25	75.1	75.1	76.1	21	32.5	2	6	270	0.00	29.698 
15:30	75.4	75.4	76.7	26	38.1	1	4	248	0.00	29.695 
15:35	75.6	75.6	76.5	22	34.1	2	5	248	0.00	29.695 
15:40	75.4	75.4	76.2	20	31.5	1	4	338	0.00	29.695 
15:45	75.6	75.6	76.7	25	37.3	1	3	338	0.00	29.690 
15:50	75.4	75.4	76.4	22	33.9	1	5	315	0.00	29.690 
15:55	75.3	75.3	76.1	20	31.4	1	4	315	0.00	29.690 
16:00	75.3	75.3	76.6	25	37.0	1	5	0	0.00	29.685 
16:05	75.4	75.4	76.6	24	36.1	1	3	22	0.00	29.685 
16:10	75.4	75.4	76.0	19	30.3	2	6	270	0.00	29.685 
16:15	75.4	75.4	76.5	23	35.0	1	5	270	0.00	29.686 
16:20	75.6	75.6	76.1	19	30.4	1	3	270	0.00	29.686 
16:25	75.8	75.8	76.1	18	29.3	1	5	68	0.00	29.686 
16:30	75.8	75.8	76.0	17	27.9	1	3	22	0.00	29.674 
16:35	75.8	75.8	76.1	18	29.3	2	5	270	0.00	29.674 
16:40	76.0	76.0	76.4	20	32.0	1	5	338	0.00	29.674 
16:45	76.0	76.0	76.2	18	29.4	1	3	338	0.00	29.669 
16:50	75.4	75.4	75.8	17	27.5	1	4	315	0.00	29.669 
16:55	75.1	75.1	75.7	17	27.3	1	4	292	0.00	29.669 
17:00	74.9	74.9	74.9	19	29.9	1	3	292	0.00	29.662 
17:05	74.9	74.9	74.9	16	25.7	1	2	292	0.00	29.662 
17:10	75.4	75.4	75.9	18	28.9	0	2	338	0.00	29.662 
17:15	75.4	75.4	75.8	17	27.5	1	3	45	0.00	29.671 
17:20	75.3	75.3	75.6	16	26.0	1	3	22	0.00	29.671 
17:25	75.3	75.3	75.8	17	27.5	0	2	22	0.00	29.671 
17:30	75.3	75.3	75.8	17	27.5	1	4	22	0.00	29.683 
17:35	75.1	75.1	75.8	18	28.7	1	4	22	0.00	29.683 
17:40	74.7	74.7	74.7	16	25.5	1	4	315	0.00	29.683 
17:45	74.6	74.6	74.6	17	26.9	0	2	338	0.00	29.689 
17:50	74.6	74.6	74.6	19	29.6	0	2	338	0.00	29.689 
17:55	74.6	74.6	74.6	16	25.4	1	3	0	0.00	29.689 
18:00	74.6	74.6	74.6	17	26.9	1	3	22	0.00	29.701 
18:05	74.6	74.6	74.6	15	23.9	1	3	22	0.00	29.701 
18:10	74.4	74.4	74.4	15	23.7	0	1	315	0.00	29.701 
18:15	74.4	74.4	74.4	16	25.3	0	1	315	0.00	29.708 
18:20	74.2	74.2	74.2	18	28.0	0	2	315	0.00	29.708 
18:25	74.0	74.0	74.0	17	26.4	0	2	338	0.00	29.708 
18:30	73.9	73.9	73.9	17	26.3	1	3	338	0.00	29.714 
18:35	73.7	73.7	73.7	16	24.7	1	3	292	0.00	29.714 
18:40	73.5	73.5	73.5	18	27.4	1	3	338	0.00	29.714 
18:45	73.5	73.5	73.5	18	27.4	0	2	338	0.00	29.713 
18:50	73.0	73.0	73.0	17	25.6	0	2	338	0.00	29.713 
18:55	72.8	72.8	72.8	17	25.4	0	1	338	0.00	29.713 
19:00	72.5	72.5	72.5	19	27.9	0	1	338	0.00	29.716 
19:05	72.3	72.3	72.3	19	27.7	0	3	270	0.00	29.716 
19:10	72.0	72.0	72.0	19	27.5	0	2	270	0.00	29.716 
19:15	71.8	71.8	71.8	18	26.0	0	1	270	0.00	29.717 
19:20	71.6	71.6	71.6	20	28.4	0	1	270	0.00	29.717 
19:25	71.5	71.5	71.5	20	28.3	0	0	---	0.00	29.717 
19:30	71.1	71.1	71.1	20	28.0	0	1	270	0.00	29.709 
19:35	70.8	70.8	70.8	20	27.7	0	1	270	0.00	29.709 
19:40	70.4	70.4	70.4	19	26.2	0	0	---	0.00	29.709 
19:45	70.1	70.1	70.1	20	27.2	0	0	---	0.00	29.708 
19:50	69.6	69.6	69.6	21	27.9	0	1	270	0.00	29.708 
19:55	69.3	69.3	69.3	22	28.8	0	0	---	0.00	29.708 
20:00	68.8	68.8	68.8	23	29.5	0	0	---	0.00	29.708 
20:05	68.1	68.1	68.1	24	29.9	0	0	---	0.00	29.708 
20:10	67.6	67.6	67.6	24	29.5	0	0	---	0.00	29.708 
20:15	67.1	67.1	67.1	25	30.1	0	0	---	0.00	29.714 
20:20	66.4	66.4	66.4	25	29.5	0	0	---	0.00	29.714 
20:25	65.8	65.8	65.8	26	30.0	0	0	---	0.00	29.714 
20:30	65.2	65.2	65.2	27	30.4	0	0	---	0.00	29.715 
20:35	64.5	64.5	64.5	28	30.7	0	0	---	0.00	29.715 
20:40	63.9	63.9	63.9	28	30.2	0	0	---	0.00	29.715 
20:45	63.4	63.4	63.4	28	29.7	0	0	---	0.00	29.717 
20:50	62.9	62.9	62.9	32	32.6	0	0	---	0.00	29.717 
20:55	62.4	62.4	62.4	32	32.2	0	0	---	0.00	29.717 
21:00	62.0	62.0	62.0	32	31.8	0	1	270	0.00	29.714 
21:05	61.8	61.8	61.8	33	32.4	0	0	---	0.00	29.714 
21:10	61.6	61.6	61.6	35	33.7	0	0	---	0.00	29.714 
21:15	61.3	61.3	61.3	35	33.4	0	0	---	0.00	29.715 
21:20	61.0	61.0	61.0	36	33.9	0	0	---	0.00	29.715 
21:25	60.7	60.7	60.7	39	35.6	0	0	---	0.00	29.715 
21:30	60.4	60.4	60.4	37	34.0	0	0	---	0.00	29.720 
21:35	60.1	60.1	60.1	39	35.1	0	0	---	0.00	29.720 
21:40	59.6	59.6	59.6	39	34.6	0	0	---	0.00	29.720 
21:45	59.3	59.3	59.3	39	34.3	0	0	---	0.00	29.717 
21:50	59.2	59.2	59.2	40	34.9	0	0	---	0.00	29.717 
21:55	58.9	58.9	58.9	42	35.9	0	0	---	0.00	29.717 
22:00	58.7	58.7	58.7	44	36.8	0	0	---	0.00	29.723 
22:05	58.4	58.4	58.4	46	37.7	0	0	---	0.00	29.723 
22:10	58.1	58.1	58.1	46	37.4	0	0	---	0.00	29.723 
22:15	58.0	58.0	58.0	46	37.3	0	0	---	0.00	29.723 
22:20	57.8	57.8	57.8	45	36.6	0	0	---	0.00	29.723 
22:25	57.6	57.6	57.6	45	36.4	0	0	---	0.00	29.723 
22:30	57.3	57.3	57.3	45	36.1	0	0	---	0.00	29.724 
22:35	57.0	57.0	57.0	45	35.9	0	0	---	0.00	29.724 
22:40	56.7	56.7	56.7	45	35.6	0	0	---	0.00	29.724 
22:45	56.3	56.3	56.3	46	35.8	0	0	---	0.00	29.721 
22:50	56.0	56.0	56.0	46	35.5	0	0	---	0.00	29.721 
22:55	55.7	55.7	55.7	49	36.8	0	0	---	0.00	29.721 
23:00	55.4	55.4	55.4	48	36.0	0	0	---	0.00	29.722 
23:05	55.1	55.1	55.1	49	36.3	0	0	---	0.00	29.722 
23:10	54.8	54.8	54.8	47	35.0	0	0	---	0.00	29.722 
23:15	54.7	54.7	54.7	48	35.4	0	0	---	0.00	29.712 
23:20	54.7	54.7	54.7	47	34.9	0	0	---	0.00	29.712 
23:25	54.5	54.5	54.5	47	34.7	0	0	---	0.00	29.712 
23:30	54.7	54.7	54.7	46	34.3	0	0	---	0.00	29.710 
23:35	55.0	55.0	55.0	44	33.5	0	0	---	0.00	29.710 
23:40	55.7	55.7	55.7	42	33.0	0	1	270	0.00	29.710 
23:45	56.6	56.6	56.6	41	33.2	0	2	270	0.00	29.707 
23:50	56.9	56.9	56.9	42	34.0	0	1	270	0.00	29.707 
23:55	57.0	57.0	57.0	42	34.1	0	1	270	0.00	29.707 

CoCoRaHS
IN-AL-39
A2 Web Hosting
Creative Commons License
GoDaddy
Look for:

loaded 2017-12-13 02:38:06 • last modified 2010-11-18 10:43:29
Privacy PolicyDisclaimer
• wx.awcolley.com is powered by PmWiki v.2002016 •
• all content (unless otherwise noted) © 2017 A W Colley